VOBZ/VGA METAR and TAF weather

Enter ICAO airport designator
Station Type Date Time Source
VOBZ METAR 2019/02/20 16:30 UTC NOAA

VOBZ 201630Z 00000KT 3000 HZ NSC 25/22 Q1017 NOSIG


Station Type Date Time Source
VOBZ Decoded METAR 2019/02/20 16:30 UTC NOAA

Vijayawada / Gannavaram, India (VOBZ) 16-32N 080-48E 24M
Feb 20, 2019 - 11:30 AM EST / 2019.02.20 1630 UTC
Wind: Calm:0
Visibility: 1 mile(s):0
Weather: haze
Temperature: 77 F (25 C)
Dew Point: 71 F (22 C)
Relative Humidity: 83%
Pressure (altimeter): 30.03 in. Hg (1017 hPa)
ob: VOBZ 201630Z 00000KT 3000 HZ NSC 25/22 Q1017 NOSIG
cycle: 16

Station Type Date Time Source
VOBZ TAF 2018/11/15 00:00 UTC NOAA

TAF VOBZ 142300Z 1500/1509 000000KT 1500 BR FEW020
BECMG 1504/1506 09008KT 6000 SCT020


Example: see airport list